5 day graph

You are here

Hive Data

Page: 1 of 16645  Records: 998690

Row Date Time Hive Temp Hive Humidity Outside Temp Outside Humidity Bottom Board Temp Outside Wall Temp Electronics Temp Light Levels inHG Fan Heat Cover Notes
Clear Sorted By: Outside Humidity ascending, Row descending
View 249504 Nov 17 2014 2:24:50pm 68 50 80.42 9 69.35 88.25 82.4 964 29.52 0 0 0 NA
View 248134 Nov 16 2014 3:12:25pm 70.7 52 75.74 9 68.9 85.1 84.2 954 29.63 0 0 0 NA
View 248133 Nov 16 2014 3:11:24pm 70.52 54 77 9 68.9 86 84.2 956 29.63 0 0 0 NA
View 248130 Nov 16 2014 3:08:21pm 70.52 55 78.62 9 68.9 87.35 84.2 956 29.63 0 0 0 NA
View 248118 Nov 16 2014 2:56:08pm 69.62 53 77.9 9 68 89.6 84.2 960 29.63 0 0 0 NA
View 248116 Nov 16 2014 2:54:07pm 69.44 53 78.44 9 68 89.6 84.2 959 29.63 0 0 0 NA
View 248115 Nov 16 2014 2:53:06pm 69.62 53 78.98 9 68 90.05 84.2 960 29.63 0 0 0 NA
View 248114 Nov 16 2014 2:52:04pm 69.44 53 79.7 9 68 90.05 84.2 960 29.63 0 0 0 NA
View 248113 Nov 16 2014 2:51:03pm 69.44 54 80.6 9 68 90.95 84.2 960 29.63 0 0 0 NA
View 248107 Nov 16 2014 2:44:58pm 69.08 53 81.86 9 67.55 92.3 84.2 962 29.63 0 0 0 NA
View 248105 Nov 16 2014 2:42:57pm 68.9 53 82.22 9 67.55 92.3 84.2 963 29.63 0 0 0 NA
View 248104 Nov 16 2014 2:41:55pm 68.9 53 82.76 9 67.55 92.3 84.2 963 29.63 0 0 0 NA
View 248103 Nov 16 2014 2:40:54pm 68.72 54 83.3 9 67.1 92.3 84.2 962 29.63 0 0 0 NA
View 248102 Nov 16 2014 2:39:53pm 68.72 54 83.66 9 67.1 92.75 84.2 962 29.63 0 0 0 NA
View 248101 Nov 16 2014 2:38:51pm 68.54 53 83.84 9 67.1 93.65 84.2 963 29.63 0 0 0 NA
View 248100 Nov 16 2014 2:37:52pm 68.54 53 83.84 9 67.1 93.65 84.2 963 29.63 0 0 0 NA
View 248097 Nov 16 2014 2:34:47pm 68.36 53 84.02 9 66.65 93.2 84.2 963 29.63 0 0 0 NA
View 248090 Nov 16 2014 2:27:41pm 67.82 52 85.46 9 66.2 93.65 84.2 965 29.63 0 0 0 NA
View 248088 Nov 16 2014 2:25:40pm 67.82 53 86.18 9 66.2 94.55 84.2 964 29.63 0 0 0 NA
View 248044 Nov 16 2014 1:40:55pm 65.12 51 87.44 9 62.15 93.65 80.6 968 29.65 0 0 0 NA
View 248030 Nov 16 2014 1:26:42pm 64.04 51 85.64 9 59.9 91.85 78.8 970 29.65 0 0 0 NA
View 248023 Nov 16 2014 1:19:36pm 63.5 49 84.2 9 59 90.5 78.8 969 29.65 0 0 0 NA
View 248016 Nov 16 2014 1:12:29pm 63.14 51 83.84 9 58.55 90.05 77 970 29.65 0 0 0 NA
View 248008 Nov 16 2014 1:03:20pm 62.42 50 83.66 9 57.65 89.15 77 970 29.65 0 0 0 NA
View 248002 Nov 16 2014 12:57:14pm 62.06 51 83.66 9 56.75 89.15 75.2 970 29.66 0 0 0 NA
View 247992 Nov 16 2014 12:47:05pm 61.34 48 84.02 9 55.85 89.15 75.2 970 29.66 0 0 0 NA
View 247991 Nov 16 2014 12:46:03pm 61.34 48 85.28 9 55.85 89.15 75.2 969 29.66 0 0 0 NA
View 249528 Nov 17 2014 2:49:14pm 71.06 37 77.18 10 72.5 83.3 82.4 962 29.52 0 0 0 NA
View 249527 Nov 17 2014 2:48:14pm 71.06 32 77.36 10 72.5 83.75 82.4 962 29.52 0 0 0 NA
View 249524 Nov 17 2014 2:45:10pm 70.7 34 77.9 10 72.5 84.2 82.4 963 29.51 0 0 0 NA
View 249523 Nov 17 2014 2:44:10pm 70.34 34 78.44 10 72.05 84.65 82.4 964 29.51 0 0 0 NA
View 249522 Nov 17 2014 2:43:09pm 70.16 36 79.16 10 72.05 85.1 82.4 963 29.52 0 0 0 NA
View 249518 Nov 17 2014 2:39:05pm 69.62 47 80.24 10 71.6 86 82.4 964 29.52 0 0 0 NA
View 249516 Nov 17 2014 2:37:02pm 69.44 51 80.24 10 71.15 86.45 82.4 962 29.52 0 0 0 NA
View 249512 Nov 17 2014 2:32:58pm 69.08 46 79.88 10 70.7 86.45 82.4 965 29.52 0 0 0 NA
View 249506 Nov 17 2014 2:26:53pm 68.18 50 79.16 10 69.8 87.35 82.4 965 29.52 0 0 0 NA
View 249505 Nov 17 2014 2:25:52pm 68.18 51 79.7 10 69.35 88.25 82.4 961 29.52 0 0 0 NA
View 249503 Nov 17 2014 2:23:50pm 68 50 81.14 10 69.35 88.7 82.4 963 29.52 0 0 0 NA
View 249499 Nov 17 2014 2:19:47pm 67.64 51 80.24 10 68.45 89.15 82.4 966 29.52 0 0 0 NA
View 249498 Nov 17 2014 2:18:45pm 67.64 51 80.24 10 68.45 88.7 82.4 967 29.52 0 0 0 NA
View 249497 Nov 17 2014 2:17:44pm 67.64 52 80.06 10 68.45 88.7 82.4 965 29.52 0 0 0 NA
View 249495 Nov 17 2014 2:15:43pm 67.46 52 80.06 10 68 88.25 82.4 964 29.52 0 0 0 NA
View 249494 Nov 17 2014 2:14:41pm 67.46 54 80.42 10 68 88.25 82.4 963 29.52 0 0 0 NA
View 249492 Nov 17 2014 2:12:39pm 67.28 52 81.32 10 67.55 88.7 82.4 964 29.52 0 0 0 NA
View 249491 Nov 17 2014 2:11:39pm 67.28 51 82.22 10 67.55 88.7 82.4 964 29.52 0 0 0 NA
View 249489 Nov 17 2014 2:09:36pm 67.1 54 83.48 10 67.1 90.5 82.4 966 29.52 0 0 0 NA
View 249487 Nov 17 2014 2:07:35pm 66.92 51 83.66 10 66.65 90.95 82.4 967 29.52 0 0 0 NA
View 249484 Nov 17 2014 2:04:31pm 66.56 50 83.66 10 66.2 90.95 82.4 965 29.52 0 0 0 NA
View 249483 Nov 17 2014 2:03:31pm 66.38 51 83.84 10 65.75 90.95 82.4 965 29.52 0 0 0 NA
View 249477 Nov 17 2014 1:57:24pm 65.84 52 84.02 10 64.85 91.4 80.6 969 29.52 0 0 0 NA
View 249470 Nov 17 2014 1:50:18pm 65.48 50 83.3 10 63.95 91.4 80.6 967 29.52 0 0 0 NA
View 249467 Nov 17 2014 1:47:15pm 65.3 53 82.94 10 63.5 90.5 80.6 965 29.53 0 0 0 NA
View 249463 Nov 17 2014 1:43:11pm 65.12 53 82.76 10 63.05 90.05 80.6 967 29.53 0 0 0 NA
View 249444 Nov 17 2014 1:23:53pm 63.86 50 80.24 10 61.7 88.7 78.8 962 29.54 0 0 0 NA
View 249442 Nov 17 2014 1:21:50pm 63.68 48 80.78 10 61.25 88.7 78.8 967 29.54 0 0 0 NA
View 249438 Nov 17 2014 1:17:47pm 63.5 49 82.4 10 60.8 89.6 78.8 969 29.54 0 0 0 NA
View 249437 Nov 17 2014 1:16:45pm 63.5 49 82.94 10 60.8 89.6 78.8 968 29.54 0 0 0 NA
View 249418 Nov 17 2014 12:57:27pm 62.42 50 80.42 10 59.45 87.35 77 968 29.55 0 0 0 NA
View 249417 Nov 17 2014 12:56:26pm 62.42 48 80.6 10 59.45 87.35 77 969 29.55 0 0 0 NA
View 249416 Nov 17 2014 12:55:24pm 62.42 49 80.96 10 59 87.35 77 967 29.54 0 0 0 NA